sensor_id;sensor_type;location;lat;lon;timestamp;pressure;altitude;pressure_sealevel;temperature;humidity
57574;BME280;68988;49.000;21.242;2023-05-24T00:01:27;98214.09;;;24.92;45.43
57574;BME280;68988;49.000;21.242;2023-05-24T00:03:52;98217.28;;;24.94;45.35
57574;BME280;68988;49.000;21.242;2023-05-24T00:06:19;98216.50;;;24.93;45.60
57574;BME280;68988;49.000;21.242;2023-05-24T00:08:45;98204.97;;;24.93;45.29
57574;BME280;68988;49.000;21.242;2023-05-24T00:11:11;98204.97;;;24.93;45.21
57574;BME280;68988;49.000;21.242;2023-05-24T00:13:36;98208.75;;;24.92;45.23
57574;BME280;68988;49.000;21.242;2023-05-24T00:16:02;98204.44;;;24.91;45.62
57574;BME280;68988;49.000;21.242;2023-05-24T00:18:27;98213.28;;;24.91;45.34
57574;BME280;68988;49.000;21.242;2023-05-24T00:20:56;98208.22;;;24.90;45.49
57574;BME280;68988;49.000;21.242;2023-05-24T00:23:25;98204.44;;;24.91;45.30
57574;BME280;68988;49.000;21.242;2023-05-24T00:25:51;98205.53;;;24.90;45.32
57574;BME280;68988;49.000;21.242;2023-05-24T00:28:16;98207.13;;;24.91;45.49
57574;BME280;68988;49.000;21.242;2023-05-24T00:30:41;98202.28;;;24.93;45.13
57574;BME280;68988;49.000;21.242;2023-05-24T00:33:07;98202.56;;;24.91;45.34
57574;BME280;68988;49.000;21.242;2023-05-24T00:35:32;98200.16;;;24.90;45.28
57574;BME280;68988;49.000;21.242;2023-05-24T00:37:58;98200.16;;;24.90;45.22
57574;BME280;68988;49.000;21.242;2023-05-24T00:40:23;98186.75;;;24.90;45.21
57574;BME280;68988;49.000;21.242;2023-05-24T00:42:48;98198.59;;;24.89;45.39
57574;BME280;68988;49.000;21.242;2023-05-24T00:45:14;98196.69;;;24.89;45.32
57574;BME280;68988;49.000;21.242;2023-05-24T00:47:40;98203.94;;;24.89;45.27
57574;BME280;68988;49.000;21.242;2023-05-24T00:50:07;98203.41;;;24.87;45.49
57574;BME280;68988;49.000;21.242;2023-05-24T00:52:34;98209.31;;;24.89;45.29
57574;BME280;68988;49.000;21.242;2023-05-24T00:55:01;98211.47;;;24.87;45.18
57574;BME280;68988;49.000;21.242;2023-05-24T00:57:26;98206.91;;;24.87;45.34
57574;BME280;68988;49.000;21.242;2023-05-24T00:59:52;98210.66;;;24.86;45.30
57574;BME280;68988;49.000;21.242;2023-05-24T01:02:17;98210.38;;;24.88;45.26
57574;BME280;68988;49.000;21.242;2023-05-24T01:04:43;98209.31;;;24.89;45.38
57574;BME280;68988;49.000;21.242;2023-05-24T01:07:24;98212.50;;;24.91;45.36
57574;BME280;68988;49.000;21.242;2023-05-24T01:10:14;98217.56;;;24.92;45.15
57574;BME280;68988;49.000;21.242;2023-05-24T01:15:49;98210.66;;;24.86;45.21
57574;BME280;68988;49.000;21.242;2023-05-24T01:18:36;98216.25;;;24.90;45.30
57574;BME280;68988;49.000;21.242;2023-05-24T01:24:06;98213.63;;;24.84;45.35
57574;BME280;68988;49.000;21.242;2023-05-24T01:27:06;98207.69;;;24.88;45.06
57574;BME280;68988;49.000;21.242;2023-05-24T01:29:34;98211.22;;;24.83;45.36
57574;BME280;68988;49.000;21.242;2023-05-24T01:32:00;98209.63;;;24.82;45.46
57574;BME280;68988;49.000;21.242;2023-05-24T01:34:25;98208.03;;;24.81;45.48
57574;BME280;68988;49.000;21.242;2023-05-24T01:36:51;98218.50;;;24.82;45.35
57574;BME280;68988;49.000;21.242;2023-05-24T01:39:17;98219.56;;;24.81;45.27
57574;BME280;68988;49.000;21.242;2023-05-24T01:42:15;98218.94;;;24.90;45.32
57574;BME280;68988;49.000;21.242;2023-05-24T01:51:13;98223.78;;;24.88;45.08
57574;BME280;68988;49.000;21.242;2023-05-24T01:53:45;98235.66;;;24.81;45.29
57574;BME280;68988;49.000;21.242;2023-05-24T01:56:12;98240.38;;;24.95;45.06
57574;BME280;68988;49.000;21.242;2023-05-24T01:58:40;98233.81;;;24.77;45.25
57574;BME280;68988;49.000;21.242;2023-05-24T02:01:08;98238.38;;;24.76;45.38
57574;BME280;68988;49.000;21.242;2023-05-24T02:03:35;98236.78;;;24.75;45.49
57574;BME280;68988;49.000;21.242;2023-05-24T02:06:02;98233.03;;;24.76;45.32
57574;BME280;68988;49.000;21.242;2023-05-24T02:08:27;98237.28;;;24.77;45.36
57574;BME280;68988;49.000;21.242;2023-05-24T02:10:53;98235.44;;;24.78;45.32
57574;BME280;68988;49.000;21.242;2023-05-24T02:13:18;98244.25;;;24.78;45.32
57574;BME280;68988;49.000;21.242;2023-05-24T02:15:44;98245.03;;;24.79;45.40
57574;BME280;68988;49.000;21.242;2023-05-24T02:18:09;98247.72;;;24.79;45.08
57574;BME280;68988;49.000;21.242;2023-05-24T02:20:35;98250.13;;;24.80;45.18
57574;BME280;68988;49.000;21.242;2023-05-24T02:23:05;98254.41;;;24.81;45.26
57574;BME280;68988;49.000;21.242;2023-05-24T02:25:31;98249.63;;;24.78;45.38
57574;BME280;68988;49.000;21.242;2023-05-24T02:27:59;98248.84;;;24.78;45.28
57574;BME280;68988;49.000;21.242;2023-05-24T02:30:25;98253.09;;;24.79;45.51
57574;BME280;68988;49.000;21.242;2023-05-24T02:32:50;98241.56;;;24.78;45.47
57574;BME280;68988;49.000;21.242;2023-05-24T02:35:16;98251.22;;;24.79;45.35
57574;BME280;68988;49.000;21.242;2023-05-24T02:37:41;98254.47;;;24.76;45.41
57574;BME280;68988;49.000;21.242;2023-05-24T02:40:07;98259.56;;;24.78;45.53
57574;BME280;68988;49.000;21.242;2023-05-24T02:42:32;98262.75;;;24.80;45.40
57574;BME280;68988;49.000;21.242;2023-05-24T02:44:58;98264.63;;;24.79;45.42
57574;BME280;68988;49.000;21.242;2023-05-24T02:47:23;98262.53;;;24.76;45.56
57574;BME280;68988;49.000;21.242;2023-05-24T02:49:51;98270.56;;;24.76;45.54
57574;BME280;68988;49.000;21.242;2023-05-24T02:52:16;98265.19;;;24.76;45.36
57574;BME280;68988;49.000;21.242;2023-05-24T02:54:45;98270.00;;;24.79;45.41
57574;BME280;68988;49.000;21.242;2023-05-24T02:57:11;98277.50;;;24.77;45.49
57574;BME280;68988;49.000;21.242;2023-05-24T02:59:36;98281.28;;;24.76;45.48
57574;BME280;68988;49.000;21.242;2023-05-24T03:02:02;98280.47;;;24.76;45.39
57574;BME280;68988;49.000;21.242;2023-05-24T03:04:27;98287.44;;;24.77;45.33
57574;BME280;68988;49.000;21.242;2023-05-24T03:06:53;98286.13;;;24.74;45.49
57574;BME280;68988;49.000;21.242;2023-05-24T03:09:18;98277.50;;;24.77;45.42
57574;BME280;68988;49.000;21.242;2023-05-24T03:11:44;98282.09;;;24.77;45.54
57574;BME280;68988;49.000;21.242;2023-05-24T03:14:09;98278.59;;;24.76;45.55
57574;BME280;68988;49.000;21.242;2023-05-24T03:16:35;98281.56;;;24.75;45.42
57574;BME280;68988;49.000;21.242;2023-05-24T03:19:01;98288.78;;;24.74;45.43
57574;BME280;68988;49.000;21.242;2023-05-24T03:21:27;98284.53;;;24.73;45.44
57574;BME280;68988;49.000;21.242;2023-05-24T03:23:52;98286.13;;;24.74;45.42
57574;BME280;68988;49.000;21.242;2023-05-24T03:26:18;98283.44;;;24.74;45.42
57574;BME280;68988;49.000;21.242;2023-05-24T03:28:44;98289.63;;;24.75;45.30
57574;BME280;68988;49.000;21.242;2023-05-24T03:31:10;98285.03;;;24.75;45.38
57574;BME280;68988;49.000;21.242;2023-05-24T03:33:36;98289.34;;;24.76;45.35
57574;BME280;68988;49.000;21.242;2023-05-24T03:36:02;98301.13;;;24.75;45.43
57574;BME280;68988;49.000;21.242;2023-05-24T03:38:28;98297.13;;;24.73;45.33
57574;BME280;68988;49.000;21.242;2023-05-24T03:40:53;98297.94;;;24.73;45.24
57574;BME280;68988;49.000;21.242;2023-05-24T03:43:19;98299.81;;;24.73;45.16
57574;BME280;68988;49.000;21.242;2023-05-24T03:45:45;98299.53;;;24.74;45.16
57574;BME280;68988;49.000;21.242;2023-05-24T03:48:12;98302.19;;;24.74;45.29
57574;BME280;68988;49.000;21.242;2023-05-24T03:50:37;98305.44;;;24.71;45.39
57574;BME280;68988;49.000;21.242;2023-05-24T03:53:03;98304.38;;;24.72;45.25
57574;BME280;68988;49.000;21.242;2023-05-24T03:55:29;98303.31;;;24.73;45.25
57574;BME280;68988;49.000;21.242;2023-05-24T03:57:54;98310.25;;;24.74;45.33
57574;BME280;68988;49.000;21.242;2023-05-24T04:00:20;98316.16;;;24.71;45.33
57574;BME280;68988;49.000;21.242;2023-05-24T04:02:45;98318.56;;;24.73;45.35
57574;BME280;68988;49.000;21.242;2023-05-24T04:05:12;98315.38;;;24.71;45.47
57574;BME280;68988;49.000;21.242;2023-05-24T04:07:38;98317.00;;;24.72;45.31
57574;BME280;68988;49.000;21.242;2023-05-24T04:10:04;98317.78;;;24.72;45.28
57574;BME280;68988;49.000;21.242;2023-05-24T04:12:30;98310.53;;;24.73;45.27
57574;BME280;68988;49.000;21.242;2023-05-24T04:14:56;98318.56;;;24.73;45.26
57574;BME280;68988;49.000;21.242;2023-05-24T04:17:22;98318.56;;;24.73;45.22
57574;BME280;68988;49.000;21.242;2023-05-24T04:19:49;98317.00;;;24.72;45.28
57574;BME280;68988;49.000;21.242;2023-05-24T04:22:16;98317.00;;;24.72;45.28
57574;BME280;68988;49.000;21.242;2023-05-24T04:24:45;98325.53;;;24.74;45.22
57574;BME280;68988;49.000;21.242;2023-05-24T04:27:11;98317.78;;;24.72;45.24
57574;BME280;68988;49.000;21.242;2023-05-24T04:29:38;98317.78;;;24.72;45.37
57574;BME280;68988;49.000;21.242;2023-05-24T04:32:04;98319.94;;;24.70;45.33
57574;BME280;68988;49.000;21.242;2023-05-24T04:34:30;98327.72;;;24.72;45.35
57574;BME280;68988;49.000;21.242;2023-05-24T04:36:58;98336.56;;;24.72;45.32
57574;BME280;68988;49.000;21.242;2023-05-24T04:39:24;98325.81;;;24.72;45.38
57574;BME280;68988;49.000;21.242;2023-05-24T04:41:49;98328.78;;;24.71;45.21
57574;BME280;68988;49.000;21.242;2023-05-24T04:44:16;98333.88;;;24.72;45.15
57574;BME280;68988;49.000;21.242;2023-05-24T04:46:41;98338.44;;;24.72;45.10
57574;BME280;68988;49.000;21.242;2023-05-24T04:49:06;98339.22;;;24.72;45.24
57574;BME280;68988;49.000;21.242;2023-05-24T04:51:33;98335.22;;;24.70;45.27
57574;BME280;68988;49.000;21.242;2023-05-24T04:53:58;98336.81;;;24.71;45.45
57574;BME280;68988;49.000;21.242;2023-05-24T04:56:25;98329.84;;;24.70;45.21
57574;BME280;68988;49.000;21.242;2023-05-24T04:58:51;98334.09;;;24.31;47.98
57574;BME280;68988;49.000;21.242;2023-05-24T05:01:16;98337.50;;;23.82;50.01
57574;BME280;68988;49.000;21.242;2023-05-24T05:03:41;98333.50;;;23.74;49.19
57574;BME280;68988;49.000;21.242;2023-05-24T05:06:09;98335.47;;;23.32;51.86
57574;BME280;68988;49.000;21.242;2023-05-24T05:08:34;98339.53;;;23.14;52.78
57574;BME280;68988;49.000;21.242;2023-05-24T05:11:00;98348.31;;;22.89;53.69
57574;BME280;68988;49.000;21.242;2023-05-24T05:13:25;98340.56;;;22.77;54.02
57574;BME280;68988;49.000;21.242;2023-05-24T05:15:51;98344.28;;;22.66;54.40
57574;BME280;68988;49.000;21.242;2023-05-24T05:18:16;98348.03;;;22.65;54.65
57574;BME280;68988;49.000;21.242;2023-05-24T05:20:41;98347.22;;;22.54;55.35
57574;BME280;68988;49.000;21.242;2023-05-24T05:23:07;98355.72;;;22.46;55.85
57574;BME280;68988;49.000;21.242;2023-05-24T05:25:33;98353.59;;;22.32;57.02
57574;BME280;68988;49.000;21.242;2023-05-24T05:27:58;98356.75;;;22.29;57.38
57574;BME280;68988;49.000;21.242;2023-05-24T05:30:23;98351.63;;;22.23;57.25
57574;BME280;68988;49.000;21.242;2023-05-24T05:32:49;98361.72;;;22.05;58.22
57574;BME280;68988;49.000;21.242;2023-05-24T05:35:14;98359.34;;;22.09;58.91
57574;BME280;68988;49.000;21.242;2023-05-24T05:37:40;98363.03;;;21.97;59.16
57574;BME280;68988;49.000;21.242;2023-05-24T05:40:05;98366.75;;;21.91;59.61
57574;BME280;68988;49.000;21.242;2023-05-24T05:42:31;98372.88;;;21.92;59.50
57574;BME280;68988;49.000;21.242;2023-05-24T05:44:56;98373.44;;;21.94;59.19
57574;BME280;68988;49.000;21.242;2023-05-24T05:47:22;98383.34;;;22.04;58.83
57574;BME280;68988;49.000;21.242;2023-05-24T05:49:47;98383.94;;;22.16;58.80
57574;BME280;68988;49.000;21.242;2023-05-24T05:52:12;98377.03;;;22.25;58.56
57574;BME280;68988;49.000;21.242;2023-05-24T05:54:38;98386.41;;;22.28;58.63
57574;BME280;68988;49.000;21.242;2023-05-24T05:57:03;98382.63;;;22.18;58.86
57574;BME280;68988;49.000;21.242;2023-05-24T05:59:29;98389.94;;;22.39;58.02
57574;BME280;68988;49.000;21.242;2023-05-24T06:01:54;98385.69;;;22.53;57.66
57574;BME280;68988;49.000;21.242;2023-05-24T06:04:20;98394.28;;;22.60;57.27
57574;BME280;68988;49.000;21.242;2023-05-24T06:06:45;98395.34;;;22.75;56.64
57574;BME280;68988;49.000;21.242;2023-05-24T06:09:14;98388.94;;;22.81;56.25
57574;BME280;68988;49.000;21.242;2023-05-24T06:11:40;98390.31;;;22.83;56.28
57574;BME280;68988;49.000;21.242;2023-05-24T06:14:09;98390.56;;;22.92;55.98
57574;BME280;68988;49.000;21.242;2023-05-24T06:16:35;98392.44;;;22.92;56.08
57574;BME280;68988;49.000;21.242;2023-05-24T06:19:06;98396.47;;;22.99;55.66
57574;BME280;68988;49.000;21.242;2023-05-24T06:21:31;98395.91;;;23.07;55.72
57574;BME280;68988;49.000;21.242;2023-05-24T06:23:57;98402.88;;;23.03;56.07
57574;BME280;68988;49.000;21.242;2023-05-24T06:26:24;98405.59;;;23.09;55.84
57574;BME280;68988;49.000;21.242;2023-05-24T06:28:51;98400.78;;;23.16;55.54
57574;BME280;68988;49.000;21.242;2023-05-24T06:31:16;98403.16;;;23.12;56.10
57574;BME280;68988;49.000;21.242;2023-05-24T06:33:42;98406.41;;;23.14;56.07
57574;BME280;68988;49.000;21.242;2023-05-24T06:36:08;98400.50;;;23.12;56.41
57574;BME280;68988;49.000;21.242;2023-05-24T06:38:33;98398.66;;;23.28;55.52
57574;BME280;68988;49.000;21.242;2023-05-24T06:41:00;98404.78;;;23.29;55.34
57574;BME280;68988;49.000;21.242;2023-05-24T06:43:25;98408.25;;;23.24;55.62
57574;BME280;68988;49.000;21.242;2023-05-24T06:45:50;98413.88;;;23.28;55.12
57574;BME280;68988;49.000;21.242;2023-05-24T06:48:16;98412.53;;;23.30;55.26
57574;BME280;68988;49.000;21.242;2023-05-24T06:50:41;98420.03;;;23.28;55.23
57574;BME280;68988;49.000;21.242;2023-05-24T06:53:07;98413.34;;;23.20;55.71
57574;BME280;68988;49.000;21.242;2023-05-24T06:55:33;98408.28;;;23.34;55.08
57574;BME280;68988;49.000;21.242;2023-05-24T06:57:58;98411.47;;;23.47;54.54
57574;BME280;68988;49.000;21.242;2023-05-24T07:00:23;98410.38;;;23.32;55.35
57574;BME280;68988;49.000;21.242;2023-05-24T07:02:49;98418.97;;;23.29;55.29
57574;BME280;68988;49.000;21.242;2023-05-24T07:05:14;98419.22;;;23.28;55.22
57574;BME280;68988;49.000;21.242;2023-05-24T07:07:41;98424.03;;;23.26;55.55
57574;BME280;68988;49.000;21.242;2023-05-24T07:10:08;98429.13;;;23.17;56.35
57574;BME280;68988;49.000;21.242;2023-05-24T07:12:34;98430.72;;;23.33;55.62
57574;BME280;68988;49.000;21.242;2023-05-24T07:15:00;98427.50;;;23.41;55.41
57574;BME280;68988;49.000;21.242;2023-05-24T07:17:25;98430.72;;;23.38;55.56
57574;BME280;68988;49.000;21.242;2023-05-24T07:19:51;98431.81;;;23.37;55.72
57574;BME280;68988;49.000;21.242;2023-05-24T07:22:16;98435.53;;;23.41;55.54
57574;BME280;68988;49.000;21.242;2023-05-24T07:24:42;98435.28;;;23.38;54.95
57574;BME280;68988;49.000;21.242;2023-05-24T07:27:07;98440.91;;;23.36;55.26
57574;BME280;68988;49.000;21.242;2023-05-24T07:29:33;98439.56;;;23.44;55.17
57574;BME280;68988;49.000;21.242;2023-05-24T07:31:59;98440.09;;;23.46;55.20
57574;BME280;68988;49.000;21.242;2023-05-24T07:34:25;98438.47;;;23.40;55.08
57574;BME280;68988;49.000;21.242;2023-05-24T07:36:52;98437.97;;;23.33;55.17
57574;BME280;68988;49.000;21.242;2023-05-24T07:39:17;98457.47;;;23.18;55.54
57574;BME280;68988;49.000;21.242;2023-05-24T07:41:43;98443.59;;;23.16;55.49
57574;BME280;68988;49.000;21.242;2023-05-24T07:44:09;98445.19;;;23.27;55.62
57574;BME280;68988;49.000;21.242;2023-05-24T07:46:34;98439.31;;;23.30;55.63
57574;BME280;68988;49.000;21.242;2023-05-24T07:48:59;98451.59;;;23.36;55.21
57574;BME280;68988;49.000;21.242;2023-05-24T07:51:25;98451.03;;;23.14;55.53
57574;BME280;68988;49.000;21.242;2023-05-24T07:53:50;98455.84;;;23.06;56.07
57574;BME280;68988;49.000;21.242;2023-05-24T07:56:16;98459.06;;;23.09;56.08
57574;BME280;68988;49.000;21.242;2023-05-24T07:58:41;98457.22;;;23.14;55.97
57574;BME280;68988;49.000;21.242;2023-05-24T08:01:09;98459.09;;;23.19;55.90
57574;BME280;68988;49.000;21.242;2023-05-24T08:03:34;98461.19;;;23.06;55.89
57574;BME280;68988;49.000;21.242;2023-05-24T08:06:01;98461.69;;;22.93;56.34
57574;BME280;68988;49.000;21.242;2023-05-24T08:08:27;98458.31;;;23.23;55.74
57574;BME280;68988;49.000;21.242;2023-05-24T08:10:52;98459.63;;;23.36;55.25
57574;BME280;68988;49.000;21.242;2023-05-24T08:13:17;98462.84;;;23.49;55.06
57574;BME280;68988;49.000;21.242;2023-05-24T08:15:43;98461.78;;;23.55;55.03
57574;BME280;68988;49.000;21.242;2023-05-24T08:18:08;98462.84;;;23.64;54.46
57574;BME280;68988;49.000;21.242;2023-05-24T08:20:34;98463.63;;;23.59;54.10
57574;BME280;68988;49.000;21.242;2023-05-24T08:23:00;98466.06;;;23.71;54.23
57574;BME280;68988;49.000;21.242;2023-05-24T08:25:26;98469.25;;;23.73;54.17
57574;BME280;68988;49.000;21.242;2023-05-24T08:27:53;98472.19;;;23.72;54.08
57574;BME280;68988;49.000;21.242;2023-05-24T08:30:21;98473.00;;;23.72;53.90
57574;BME280;68988;49.000;21.242;2023-05-24T08:32:47;98478.63;;;23.76;54.00
57574;BME280;68988;49.000;21.242;2023-05-24T08:35:12;98467.63;;;23.72;54.18
57574;BME280;68988;49.000;21.242;2023-05-24T08:37:38;98474.06;;;23.76;54.18
57574;BME280;68988;49.000;21.242;2023-05-24T08:40:03;98466.59;;;23.68;54.14
57574;BME280;68988;49.000;21.242;2023-05-24T08:42:29;98461.19;;;23.78;53.93
57574;BME280;68988;49.000;21.242;2023-05-24T08:45:03;98471.41;;;23.87;54.13
57574;BME280;68988;49.000;21.242;2023-05-24T08:47:30;98467.38;;;23.94;54.28
57574;BME280;68988;49.000;21.242;2023-05-24T08:49:56;98471.16;;;23.88;54.36
57574;BME280;68988;49.000;21.242;2023-05-24T08:52:22;98468.19;;;23.95;54.14
57574;BME280;68988;49.000;21.242;2023-05-24T08:54:48;98467.63;;;23.98;54.40
57574;BME280;68988;49.000;21.242;2023-05-24T08:57:14;98476.69;;;24.12;53.97
57574;BME280;68988;49.000;21.242;2023-05-24T08:59:41;98474.28;;;24.11;53.92
57574;BME280;68988;49.000;21.242;2023-05-24T09:02:08;98478.28;;;24.24;54.23
57574;BME280;68988;49.000;21.242;2023-05-24T09:04:38;98476.41;;;24.24;54.04
57574;BME280;68988;49.000;21.242;2023-05-24T09:07:05;98486.31;;;24.29;54.17
57574;BME280;68988;49.000;21.242;2023-05-24T09:09:33;98479.88;;;24.30;54.44
57574;BME280;68988;49.000;21.242;2023-05-24T09:12:01;98480.66;;;24.36;54.22
57574;BME280;68988;49.000;21.242;2023-05-24T09:14:28;98480.66;;;24.36;53.62
57574;BME280;68988;49.000;21.242;2023-05-24T09:16:55;98475.56;;;24.34;53.60
57574;BME280;68988;49.000;21.242;2023-05-24T09:19:20;98482.00;;;24.38;53.28
57574;BME280;68988;49.000;21.242;2023-05-24T09:21:48;98477.16;;;24.40;53.19
57574;BME280;68988;49.000;21.242;2023-05-24T09:24:15;98485.19;;;24.45;53.36
57574;BME280;68988;49.000;21.242;2023-05-24T09:26:40;98485.69;;;24.53;53.54
57574;BME280;68988;49.000;21.242;2023-05-24T09:29:06;98480.06;;;24.49;53.39
57574;BME280;68988;49.000;21.242;2023-05-24T09:31:37;98488.91;;;24.55;53.29
57574;BME280;68988;49.000;21.242;2023-05-24T09:34:08;98491.59;;;24.55;53.00
57574;BME280;68988;49.000;21.242;2023-05-24T09:36:34;98492.66;;;24.54;53.49
57574;BME280;68988;49.000;21.242;2023-05-24T09:39:10;98494.31;;;24.34;52.08
57574;BME280;68988;49.000;21.242;2023-05-24T09:41:37;98490.81;;;24.39;52.66
57574;BME280;68988;49.000;21.242;2023-05-24T09:44:03;98486.50;;;24.48;52.63
57574;BME280;68988;49.000;21.242;2023-05-24T09:46:28;98487.59;;;24.42;52.26
57574;BME280;68988;49.000;21.242;2023-05-24T09:48:59;98491.63;;;24.44;52.85
57574;BME280;68988;49.000;21.242;2023-05-24T09:51:27;98492.66;;;24.54;52.33
57574;BME280;68988;49.000;21.242;2023-05-24T09:53:56;98493.75;;;24.58;52.29
57574;BME280;68988;49.000;21.242;2023-05-24T09:56:21;98497.47;;;24.57;52.33
57574;BME280;68988;49.000;21.242;2023-05-24T09:58:47;98492.38;;;24.55;51.92
57574;BME280;68988;49.000;21.242;2023-05-24T10:01:13;98490.50;;;24.56;52.19
57574;BME280;68988;49.000;21.242;2023-05-24T10:03:53;98491.59;;;24.60;51.60
57574;BME280;68988;49.000;21.242;2023-05-24T10:06:19;98485.13;;;24.56;51.93
57574;BME280;68988;49.000;21.242;2023-05-24T10:08:49;98476.84;;;24.62;51.92
57574;BME280;68988;49.000;21.242;2023-05-24T10:11:16;98480.06;;;24.59;51.43
57574;BME280;68988;49.000;21.242;2023-05-24T10:13:41;98485.13;;;24.56;51.46
57574;BME280;68988;49.000;21.242;2023-05-24T10:16:08;98479.53;;;24.52;51.47
57574;BME280;68988;49.000;21.242;2023-05-24T10:18:38;98481.69;;;24.50;51.44
57574;BME280;68988;49.000;21.242;2023-05-24T10:21:07;98480.31;;;24.53;51.50
57574;BME280;68988;49.000;21.242;2023-05-24T10:23:37;98477.91;;;24.56;51.21
57574;BME280;68988;49.000;21.242;2023-05-24T10:26:07;98477.66;;;24.58;52.03
57574;BME280;68988;49.000;21.242;2023-05-24T10:28:37;98473.34;;;24.62;51.57
57574;BME280;68988;49.000;21.242;2023-05-24T10:31:14;98478.97;;;24.60;51.43
57574;BME280;68988;49.000;21.242;2023-05-24T10:33:43;98469.59;;;24.63;50.90
57574;BME280;68988;49.000;21.242;2023-05-24T10:36:12;98465.56;;;24.60;50.55
57574;BME280;68988;49.000;21.242;2023-05-24T10:38:38;98470.94;;;24.55;51.20
57574;BME280;68988;49.000;21.242;2023-05-24T10:41:05;98475.22;;;24.56;50.93
57574;BME280;68988;49.000;21.242;2023-05-24T10:43:33;98473.09;;;24.58;51.14
57574;BME280;68988;49.000;21.242;2023-05-24T10:45:59;98483.22;;;24.66;51.20
57574;BME280;68988;49.000;21.242;2023-05-24T10:50:51;98479.72;;;24.71;50.96
57574;BME280;68988;49.000;21.242;2023-05-24T10:53:19;98480.28;;;24.73;50.76
57574;BME280;68988;49.000;21.242;2023-05-24T10:55:57;98487.75;;;24.76;50.69
57574;BME280;68988;49.000;21.242;2023-05-24T11:01:31;98481.31;;;24.77;50.49
57574;BME280;68988;49.000;21.242;2023-05-24T11:04:17;98485.41;;;24.64;50.53
57574;BME280;68988;49.000;21.242;2023-05-24T11:06:55;98479.53;;;24.62;50.20
57574;BME280;68988;49.000;21.242;2023-05-24T11:09:22;98482.19;;;24.62;50.25
57574;BME280;68988;49.000;21.242;2023-05-24T11:11:53;98480.31;;;24.63;50.54
57574;BME280;68988;49.000;21.242;2023-05-24T11:14:24;98479.22;;;24.69;50.55
57574;BME280;68988;49.000;21.242;2023-05-24T11:16:51;98482.59;;;24.85;50.09
57574;BME280;68988;49.000;21.242;2023-05-24T11:19:23;98484.03;;;24.72;50.49
57574;BME280;68988;49.000;21.242;2023-05-24T11:21:50;98491.00;;;24.73;50.33
57574;BME280;68988;49.000;21.242;2023-05-24T11:24:18;98490.44;;;24.76;50.49
57574;BME280;68988;49.000;21.242;2023-05-24T11:26:44;98489.06;;;24.79;51.24
57574;BME280;68988;49.000;21.242;2023-05-24T11:29:14;98500.63;;;24.79;50.95
57574;BME280;68988;49.000;21.242;2023-05-24T11:31:52;98497.66;;;24.81;50.87
57574;BME280;68988;49.000;21.242;2023-05-24T11:34:21;98496.84;;;24.80;51.04
57574;BME280;68988;49.000;21.242;2023-05-24T11:36:48;98496.88;;;24.75;51.31
57574;BME280;68988;49.000;21.242;2023-05-24T11:39:14;98497.69;;;24.71;51.04
57574;BME280;68988;49.000;21.242;2023-05-24T11:41:40;98500.13;;;24.72;51.43
57574;BME280;68988;49.000;21.242;2023-05-24T11:44:07;98504.13;;;24.70;51.44
57574;BME280;68988;49.000;21.242;2023-05-24T11:46:33;98506.03;;;24.69;51.40
57574;BME280;68988;49.000;21.242;2023-05-24T11:48:59;98510.03;;;24.66;51.53
57574;BME280;68988;49.000;21.242;2023-05-24T11:51:26;98508.97;;;24.67;51.54
57574;BME280;68988;49.000;21.242;2023-05-24T11:53:52;98513.56;;;24.67;51.40
57574;BME280;68988;49.000;21.242;2023-05-24T11:56:17;98508.72;;;24.64;51.69
57574;BME280;68988;49.000;21.242;2023-05-24T11:58:49;98506.03;;;24.69;51.43
57574;BME280;68988;49.000;21.242;2023-05-24T12:01:25;98507.91;;;24.69;51.37
57574;BME280;68988;49.000;21.242;2023-05-24T12:03:52;98497.19;;;24.63;51.59
57574;BME280;68988;49.000;21.242;2023-05-24T12:06:21;98497.75;;;24.60;51.77
57574;BME280;68988;49.000;21.242;2023-05-24T12:08:47;98498.56;;;24.61;51.54
57574;BME280;68988;49.000;21.242;2023-05-24T12:11:13;98496.66;;;24.61;51.35
57574;BME280;68988;49.000;21.242;2023-05-24T12:13:40;98502.03;;;24.56;51.46
57574;BME280;68988;49.000;21.242;2023-05-24T12:16:05;98500.69;;;24.59;51.05
57574;BME280;68988;49.000;21.242;2023-05-24T12:18:32;98496.16;;;24.59;51.54
57574;BME280;68988;49.000;21.242;2023-05-24T12:20:57;98502.81;;;24.57;51.70
57574;BME280;68988;49.000;21.242;2023-05-24T12:23:24;98506.06;;;24.59;51.83
57574;BME280;68988;49.000;21.242;2023-05-24T12:25:57;98504.19;;;24.59;51.57
57574;BME280;68988;49.000;21.242;2023-05-24T12:28:23;98508.47;;;24.55;51.98
57574;BME280;68988;49.000;21.242;2023-05-24T12:30:48;98506.34;;;24.57;51.94
57574;BME280;68988;49.000;21.242;2023-05-24T12:33:17;98517.59;;;24.59;52.10
57574;BME280;68988;49.000;21.242;2023-05-24T12:35:43;98523.75;;;24.60;51.47
57574;BME280;68988;49.000;21.242;2023-05-24T12:38:08;98520.81;;;24.61;51.48
57574;BME280;68988;49.000;21.242;2023-05-24T12:40:34;98517.06;;;24.62;51.55
57574;BME280;68988;49.000;21.242;2023-05-24T12:43:02;98522.66;;;24.66;51.22
57574;BME280;68988;49.000;21.242;2023-05-24T12:45:28;98521.03;;;24.65;51.14
57574;BME280;68988;49.000;21.242;2023-05-24T12:47:55;98530.69;;;24.66;51.23
57574;BME280;68988;49.000;21.242;2023-05-24T12:50:23;98536.63;;;24.63;51.00
57574;BME280;68988;49.000;21.242;2023-05-24T12:52:49;98538.75;;;24.56;51.21
57574;BME280;68988;49.000;21.242;2023-05-24T12:55:27;98530.97;;;24.64;51.08
57574;BME280;68988;49.000;21.242;2023-05-24T12:57:54;98536.63;;;24.63;50.89
57574;BME280;68988;49.000;21.242;2023-05-24T13:00:24;98524.81;;;24.64;51.25
57574;BME280;68988;49.000;21.242;2023-05-24T13:02:53;98522.59;;;24.81;50.66
57574;BME280;68988;49.000;21.242;2023-05-24T13:05:21;98518.09;;;24.66;51.12
57574;BME280;68988;49.000;21.242;2023-05-24T13:07:49;98525.84;;;24.68;50.95